createdAt,value
2023-02-17T00:05:53.629Z,24.05
2023-02-17T00:08:21.746Z,23.88
2023-02-17T00:10:58.290Z,25.48
2023-02-17T00:13:26.032Z,24.48
2023-02-17T00:15:54.198Z,25.90
2023-02-17T00:18:22.208Z,24.75
2023-02-17T00:21:18.348Z,24.02
2023-02-17T00:23:47.477Z,24.92
2023-02-17T00:35:15.786Z,24.88
2023-02-17T00:41:04.092Z,26.00
2023-02-17T00:43:32.519Z,26.25
2023-02-17T00:46:00.166Z,26.02
2023-02-17T00:48:33.728Z,26.38
2023-02-17T00:51:02.089Z,25.02
2023-02-17T00:59:20.213Z,24.83
2023-02-17T01:01:51.387Z,24.20
2023-02-17T01:10:17.947Z,27.27
2023-02-17T01:12:46.024Z,26.88
2023-02-17T01:15:14.054Z,29.42
2023-02-17T01:17:41.959Z,27.88
2023-02-17T01:20:38.400Z,26.48
2023-02-17T01:23:09.361Z,27.17
2023-02-17T01:31:33.958Z,27.05
2023-02-17T01:34:04.016Z,27.30
2023-02-17T01:39:27.343Z,26.73
2023-02-17T01:41:57.239Z,27.65
2023-02-17T01:44:28.583Z,27.48
2023-02-17T01:47:02.486Z,26.90
2023-02-17T01:49:33.414Z,26.05
2023-02-17T01:52:14.561Z,27.30
2023-02-17T01:54:47.280Z,25.75
2023-02-17T01:57:19.863Z,26.70
2023-02-17T01:59:48.755Z,25.05
2023-02-17T02:02:22.445Z,24.58
2023-02-17T02:04:53.702Z,26.50
2023-02-17T02:07:33.370Z,26.15
2023-02-17T02:10:03.552Z,26.15
2023-02-17T02:12:41.445Z,25.02
2023-02-17T02:15:22.620Z,23.75
2023-02-17T02:18:09.475Z,24.38
2023-02-17T02:21:05.059Z,24.63
2023-02-17T02:31:06.422Z,23.95
2023-02-17T02:33:57.667Z,22.95
2023-02-17T02:45:36.247Z,21.27
2023-02-17T02:48:35.448Z,20.58
2023-02-17T02:51:21.665Z,19.60
2023-02-17T02:54:00.177Z,20.90
2023-02-17T02:56:47.304Z,20.83
2023-02-17T02:59:41.528Z,19.85
2023-02-17T03:02:35.990Z,21.45
2023-02-17T03:05:15.849Z,20.15
2023-02-17T03:07:50.117Z,20.00
2023-02-17T03:13:02.338Z,21.17
2023-02-17T03:15:35.983Z,19.45
2023-02-17T03:18:03.931Z,19.63
2023-02-17T03:20:38.401Z,19.42
2023-02-17T03:23:07.313Z,17.42
2023-02-17T03:25:36.823Z,15.77
2023-02-17T03:28:29.882Z,15.75
2023-02-17T03:30:58.070Z,15.60
2023-02-17T03:41:52.237Z,14.98
2023-02-17T03:44:25.813Z,14.95
2023-02-17T03:46:55.386Z,14.77
2023-02-17T03:49:24.404Z,15.90
2023-02-17T03:51:56.862Z,15.25
2023-02-17T03:54:28.756Z,15.18
2023-02-17T03:57:07.369Z,15.80
2023-02-17T03:59:36.355Z,14.63
2023-02-17T04:05:23.584Z,14.77
2023-02-17T04:10:33.748Z,14.30
2023-02-17T04:15:55.058Z,16.17
2023-02-17T04:18:24.686Z,16.63
2023-02-17T04:24:10.097Z,16.38
2023-02-17T04:26:38.433Z,15.82
2023-02-17T04:29:13.509Z,15.45
2023-02-17T04:31:42.129Z,14.38
2023-02-17T04:34:13.502Z,14.75
2023-02-17T04:37:10.644Z,14.65
2023-02-17T04:39:44.150Z,15.10
2023-02-17T04:42:11.735Z,15.15
2023-02-17T04:44:41.657Z,14.70
2023-02-17T04:47:39.065Z,15.27
2023-02-17T04:50:11.545Z,15.20
2023-02-17T04:52:40.490Z,15.30
2023-02-17T04:55:33.899Z,15.85
2023-02-17T04:58:02.474Z,16.85
2023-02-17T05:01:05.405Z,15.25
2023-02-17T05:10:24.071Z,17.73
2023-02-17T05:12:55.988Z,16.40
2023-02-17T05:15:24.333Z,17.92
2023-02-17T05:17:52.624Z,16.73
2023-02-17T05:20:19.962Z,17.63
2023-02-17T05:35:23.494Z,15.18
2023-02-17T05:54:32.877Z,15.85
2023-02-17T05:56:59.973Z,15.52
2023-02-17T06:02:31.139Z,14.77
2023-02-17T06:26:54.062Z,14.52
2023-02-17T06:29:22.027Z,14.77
2023-02-17T06:32:21.597Z,15.27
2023-02-17T06:37:31.704Z,14.85
2023-02-17T06:40:00.074Z,14.00
2023-02-17T06:52:43.101Z,13.50
2023-02-17T06:55:10.625Z,14.88
2023-02-17T06:58:03.958Z,15.52
2023-02-17T07:00:32.086Z,13.77
2023-02-17T07:03:24.018Z,13.48
2023-02-17T07:06:21.068Z,15.68
2023-02-17T07:08:48.475Z,15.10
2023-02-17T07:13:57.937Z,17.10
2023-02-17T07:16:26.323Z,18.27
2023-02-17T07:18:53.789Z,18.30
2023-02-17T07:21:26.823Z,16.90
2023-02-17T07:23:54.013Z,16.80
2023-02-17T07:26:22.139Z,16.63
2023-02-17T07:28:49.897Z,17.67
2023-02-17T07:31:18.351Z,18.27
2023-02-17T07:33:48.277Z,16.75
2023-02-17T07:36:17.569Z,17.20
2023-02-17T07:38:45.866Z,17.88
2023-02-17T07:41:20.248Z,18.20
2023-02-17T07:43:48.971Z,18.60
2023-02-17T07:46:17.882Z,18.00
2023-02-17T07:49:12.211Z,18.17
2023-02-17T07:51:45.978Z,18.10
2023-02-17T07:54:14.272Z,19.77
2023-02-17T07:57:06.602Z,18.45
2023-02-17T07:59:33.800Z,18.00
2023-02-17T08:02:01.777Z,16.95
2023-02-17T08:04:30.124Z,16.55
2023-02-17T08:06:57.754Z,17.23
2023-02-17T08:09:49.154Z,16.40
2023-02-17T08:12:40.853Z,16.80
2023-02-17T08:15:11.613Z,15.90
2023-02-17T08:17:44.409Z,15.23
2023-02-17T08:20:13.677Z,15.77
2023-02-17T08:22:41.690Z,15.43
2023-02-17T08:25:10.276Z,15.60
2023-02-17T08:28:05.934Z,14.48
2023-02-17T08:30:59.046Z,14.45
2023-02-17T08:33:30.747Z,15.20
2023-02-17T08:36:07.441Z,13.30
2023-02-17T08:38:35.725Z,12.88
2023-02-17T08:41:16.218Z,12.13
2023-02-17T08:43:43.761Z,13.45
2023-02-17T08:46:42.474Z,12.60
2023-02-17T08:49:10.053Z,14.90
2023-02-17T08:52:04.276Z,13.63
2023-02-17T08:54:33.021Z,15.57
2023-02-17T08:57:00.000Z,14.20
2023-02-17T08:59:28.364Z,15.32
2023-02-17T09:02:01.034Z,14.55
2023-02-17T09:04:52.812Z,13.35
2023-02-17T09:10:12.933Z,11.05
2023-02-17T09:12:40.594Z,12.05
2023-02-17T09:15:14.894Z,12.15
2023-02-17T09:17:42.075Z,11.55
2023-02-17T09:20:24.347Z,11.70
2023-02-17T09:22:52.494Z,9.98
2023-02-17T09:25:20.264Z,10.13
2023-02-17T09:27:48.878Z,9.57
2023-02-17T09:30:20.992Z,11.32
2023-02-17T09:32:48.088Z,10.18
2023-02-17T09:35:17.401Z,9.80
2023-02-17T09:37:51.160Z,10.07
2023-02-17T09:40:49.122Z,10.32
2023-02-17T09:43:22.289Z,10.65
2023-02-17T09:45:59.079Z,10.18
2023-02-17T09:48:31.185Z,9.85
2023-02-17T09:51:13.281Z,10.18
2023-02-17T09:54:12.090Z,9.93
2023-02-17T09:56:48.713Z,8.70
2023-02-17T09:59:27.977Z,9.18
2023-02-17T10:01:57.181Z,8.88
2023-02-17T10:04:33.005Z,9.32
2023-02-17T10:07:02.363Z,8.18
2023-02-17T10:09:55.743Z,9.48
2023-02-17T10:12:55.390Z,8.52
2023-02-17T10:15:36.759Z,9.00
2023-02-17T10:18:20.196Z,8.98
2023-02-17T10:20:55.935Z,8.70
2023-02-17T10:23:31.330Z,8.43
2023-02-17T10:26:18.861Z,9.73
2023-02-17T10:29:06.192Z,8.48
2023-02-17T10:31:47.393Z,8.63
2023-02-17T10:35:06.854Z,9.75
2023-02-17T10:38:06.223Z,9.27
2023-02-17T10:40:34.767Z,9.95
2023-02-17T10:43:11.268Z,10.32
2023-02-17T10:45:46.124Z,8.85
2023-02-17T10:48:13.953Z,10.65
2023-02-17T10:50:43.471Z,9.43
2023-02-17T10:56:14.769Z,9.48
2023-02-17T10:59:00.735Z,9.45
2023-02-17T11:01:33.534Z,9.43
2023-02-17T11:04:12.224Z,8.95
2023-02-17T11:06:55.196Z,8.52
2023-02-17T11:09:32.832Z,9.13
2023-02-17T11:12:03.461Z,9.77
2023-02-17T11:14:38.895Z,8.88
2023-02-17T11:17:30.715Z,9.27
2023-02-17T11:20:26.453Z,9.45
2023-02-17T11:23:15.677Z,9.00
2023-02-17T11:25:54.492Z,8.90
2023-02-17T11:28:28.559Z,9.55
2023-02-17T11:31:28.449Z,8.15
2023-02-17T11:33:57.081Z,8.70
2023-02-17T11:36:32.680Z,7.97
2023-02-17T11:39:00.865Z,7.57
2023-02-17T11:41:38.066Z,9.82
2023-02-17T11:44:14.953Z,8.45
2023-02-17T11:53:41.468Z,9.05
2023-02-17T11:56:42.740Z,9.63
2023-02-17T11:59:17.441Z,8.43
2023-02-17T12:02:17.937Z,8.50
2023-02-17T12:05:05.575Z,8.45
2023-02-17T12:08:03.101Z,8.93
2023-02-17T12:11:08.178Z,8.32
2023-02-17T12:13:58.889Z,8.57
2023-02-17T12:16:50.425Z,7.35
2023-02-17T12:19:37.123Z,8.45
2023-02-17T12:22:30.630Z,7.03
2023-02-17T12:25:39.001Z,7.50
2023-02-17T12:28:24.118Z,8.68
2023-02-17T12:31:42.265Z,8.32
2023-02-17T12:34:51.330Z,8.07
2023-02-17T12:37:31.182Z,7.15
2023-02-17T12:40:08.969Z,7.57
2023-02-17T12:42:41.179Z,7.78
2023-02-17T12:45:41.041Z,8.23
2023-02-17T12:48:26.035Z,7.63
2023-02-17T12:51:18.620Z,7.22
2023-02-17T12:53:52.836Z,6.40
2023-02-17T12:56:25.978Z,6.95
2023-02-17T12:59:25.314Z,7.07
2023-02-17T13:02:19.185Z,6.32
2023-02-17T13:04:58.534Z,6.07
2023-02-17T13:07:47.405Z,6.65
2023-02-17T13:10:34.802Z,5.93
2023-02-17T13:13:08.008Z,5.85
2023-02-17T13:15:37.512Z,5.53
2023-02-17T13:18:11.743Z,5.38
2023-02-17T13:21:24.851Z,4.55
2023-02-17T13:24:02.098Z,4.90
2023-02-17T13:26:49.990Z,4.75
2023-02-17T13:29:23.578Z,5.07
2023-02-17T13:32:28.341Z,4.70
2023-02-17T13:35:01.717Z,5.10
2023-02-17T13:37:33.666Z,4.82
2023-02-17T13:40:18.023Z,5.22
2023-02-17T13:42:54.064Z,5.88
2023-02-17T13:46:07.041Z,5.30
2023-02-17T13:48:36.185Z,6.20
2023-02-17T13:51:06.217Z,6.25
2023-02-17T13:53:42.508Z,5.95
2023-02-17T13:56:23.263Z,5.80
2023-02-17T13:58:56.936Z,7.05
2023-02-17T14:01:33.253Z,6.97
2023-02-17T14:04:03.471Z,6.15
2023-02-17T14:06:43.161Z,6.03
2023-02-17T14:09:29.590Z,5.72
2023-02-17T14:12:04.619Z,5.53
2023-02-17T14:29:40.562Z,3.53
2023-02-17T14:35:21.344Z,2.30
2023-02-17T14:40:40.219Z,1.60
2023-02-17T15:22:28.119Z,1.83
2023-02-17T15:25:03.238Z,2.30
2023-02-17T15:27:39.523Z,1.67
2023-02-17T15:33:02.781Z,2.30
2023-02-17T15:35:30.445Z,2.95
2023-02-17T15:37:58.113Z,2.53
2023-02-17T15:40:28.436Z,2.53
2023-02-17T15:45:42.652Z,1.90
2023-02-17T15:48:38.514Z,2.45
2023-02-17T15:51:06.818Z,3.05
2023-02-17T15:53:38.985Z,3.08
2023-02-17T15:56:20.585Z,4.25
2023-02-17T15:58:53.083Z,3.03
2023-02-17T16:01:29.611Z,2.70
2023-02-17T16:06:40.202Z,2.65
2023-02-17T16:09:14.419Z,2.35
2023-02-17T16:11:54.504Z,2.17
2023-02-17T16:17:26.519Z,2.67
2023-02-17T16:19:59.813Z,2.70
2023-02-17T16:22:28.660Z,2.20
2023-02-17T16:24:55.851Z,2.90
2023-02-17T16:27:25.136Z,2.15
2023-02-17T16:30:31.607Z,2.08
2023-02-17T16:33:05.274Z,2.20
2023-02-17T16:35:34.026Z,2.58
2023-02-17T16:43:41.897Z,2.43
2023-02-17T16:46:24.676Z,2.28
2023-02-17T16:48:51.980Z,2.92
2023-02-17T16:54:01.734Z,3.17
2023-02-17T16:56:40.359Z,2.50
2023-02-17T16:59:41.033Z,1.65
2023-02-17T17:02:11.120Z,2.05
2023-02-17T17:04:43.930Z,3.00
2023-02-17T17:07:14.086Z,1.60
2023-02-17T17:09:43.081Z,2.15
2023-02-17T17:15:04.551Z,1.75
2023-02-17T17:17:39.060Z,2.53
2023-02-17T17:20:06.424Z,2.15
2023-02-17T17:22:34.096Z,3.35
2023-02-17T17:25:01.760Z,3.13
2023-02-17T17:27:29.693Z,2.83
2023-02-17T17:29:57.785Z,2.78
2023-02-17T17:32:25.944Z,2.35
2023-02-17T17:34:55.161Z,2.17
2023-02-17T17:37:48.239Z,2.38
2023-02-17T17:40:24.369Z,2.92
2023-02-17T17:43:20.376Z,2.30
2023-02-17T17:45:49.966Z,1.75
2023-02-17T17:48:42.231Z,2.72
2023-02-17T17:51:12.667Z,2.25
2023-02-17T17:53:44.889Z,3.20
2023-02-17T17:56:17.858Z,2.33
2023-02-17T17:59:11.456Z,1.60
2023-02-17T18:01:40.220Z,2.58
2023-02-17T18:04:09.485Z,2.03
2023-02-17T18:06:42.154Z,2.40
2023-02-17T18:12:16.914Z,2.35
2023-02-17T18:14:44.648Z,2.45
2023-02-17T18:17:13.733Z,2.10
2023-02-17T18:19:41.976Z,2.08
2023-02-17T18:22:09.671Z,2.63
2023-02-17T18:24:37.737Z,2.50
2023-02-17T18:27:05.703Z,2.65
2023-02-17T18:29:33.699Z,1.98
2023-02-17T18:32:06.960Z,3.13
2023-02-17T18:34:33.659Z,2.63
2023-02-17T18:37:08.121Z,2.42
2023-02-17T18:39:41.078Z,2.65
2023-02-17T18:42:14.538Z,3.22
2023-02-17T18:44:41.696Z,2.88
2023-02-17T18:47:09.865Z,3.72
2023-02-17T18:49:42.029Z,5.00
2023-02-17T18:52:33.941Z,3.38
2023-02-17T18:55:14.365Z,2.60
2023-02-17T18:57:41.889Z,2.92
2023-02-17T19:00:11.713Z,2.15
2023-02-17T19:02:42.689Z,2.38
2023-02-17T19:05:10.870Z,2.50
2023-02-17T19:07:43.804Z,2.28
2023-02-17T19:10:35.787Z,3.28
2023-02-17T19:13:07.957Z,2.75
2023-02-17T19:15:37.775Z,2.40
2023-02-17T19:18:05.982Z,2.15
2023-02-17T19:23:20.049Z,2.55
2023-02-17T19:28:40.167Z,3.08
2023-02-17T19:31:19.239Z,2.60
2023-02-17T19:36:33.782Z,2.55
2023-02-17T19:39:09.187Z,2.97
2023-02-17T19:42:03.553Z,2.47
2023-02-17T19:44:32.570Z,3.10
2023-02-17T19:47:31.145Z,2.65
2023-02-17T19:49:59.902Z,3.13
2023-02-17T19:52:27.921Z,2.63
2023-02-17T19:54:55.765Z,3.25
2023-02-17T19:57:23.902Z,2.08
2023-02-17T19:59:51.994Z,4.47
2023-02-17T20:02:19.953Z,3.72
2023-02-17T20:04:53.131Z,2.70
2023-02-17T20:07:21.933Z,3.05
2023-02-17T20:09:54.130Z,2.78
2023-02-17T20:12:21.846Z,2.25
2023-02-17T20:14:54.793Z,2.47
2023-02-17T20:17:27.722Z,2.50
2023-02-17T20:20:00.003Z,3.60
2023-02-17T20:22:27.792Z,2.58
2023-02-17T20:24:55.773Z,2.25
2023-02-17T20:27:23.860Z,1.85
2023-02-17T20:29:56.866Z,2.25
2023-02-17T20:32:23.788Z,1.80
2023-02-17T20:34:52.761Z,2.63
2023-02-17T20:37:19.697Z,2.63
2023-02-17T20:39:47.769Z,1.98
2023-02-17T20:42:16.104Z,2.22
2023-02-17T20:44:49.704Z,3.58
2023-02-17T20:47:43.217Z,2.50
2023-02-17T20:50:17.056Z,3.10
2023-02-17T20:52:45.223Z,2.05
2023-02-17T20:55:15.322Z,1.80
2023-02-17T20:57:44.236Z,2.50
2023-02-17T21:00:20.868Z,3.13
2023-02-17T21:02:48.710Z,2.78
2023-02-17T21:05:22.671Z,2.42
2023-02-17T21:07:50.026Z,2.50
2023-02-17T21:10:27.684Z,2.47
2023-02-17T21:12:55.944Z,2.60
2023-02-17T21:15:29.258Z,1.85
2023-02-17T21:18:02.726Z,1.77
2023-02-17T21:20:29.728Z,2.00
2023-02-17T21:22:58.158Z,2.17
2023-02-17T21:25:25.901Z,2.78
2023-02-17T21:27:53.860Z,1.77
2023-02-17T21:30:27.682Z,2.25
2023-02-17T21:32:56.792Z,2.97
2023-02-17T21:35:24.145Z,2.50
2023-02-17T21:37:52.256Z,2.67
2023-02-17T21:43:30.475Z,2.33
2023-02-17T21:45:58.029Z,2.63
2023-02-17T21:48:29.821Z,2.30
2023-02-17T21:51:06.425Z,3.05
2023-02-17T21:53:34.134Z,2.22
2023-02-17T21:56:08.480Z,2.60
2023-02-17T21:58:38.991Z,2.17
2023-02-17T22:01:06.548Z,2.00
2023-02-17T22:03:39.013Z,2.25
2023-02-17T22:06:34.060Z,2.33
2023-02-17T22:09:07.283Z,2.78
2023-02-17T22:11:38.790Z,2.38
2023-02-17T22:14:15.259Z,2.95
2023-02-17T22:16:44.525Z,2.08
2023-02-17T22:19:37.728Z,2.45
2023-02-17T22:22:09.708Z,2.00
2023-02-17T22:24:37.960Z,1.83
2023-02-17T22:27:09.770Z,2.22
2023-02-17T22:29:37.935Z,2.10
2023-02-17T22:32:05.824Z,1.92
2023-02-17T22:34:33.688Z,1.92
2023-02-17T22:37:01.966Z,2.70
2023-02-17T22:39:33.982Z,2.90
2023-02-17T22:42:02.340Z,1.75
2023-02-17T22:44:30.149Z,2.30
2023-02-17T22:46:57.970Z,2.83
2023-02-17T22:49:25.854Z,1.98
2023-02-17T22:51:56.180Z,2.78
2023-02-17T22:54:23.716Z,2.78
2023-02-17T22:56:51.714Z,2.30
2023-02-17T22:59:19.773Z,2.42
2023-02-17T23:01:47.994Z,2.22
2023-02-17T23:04:16.161Z,1.55
2023-02-17T23:06:53.980Z,3.10
2023-02-17T23:09:21.917Z,2.40
2023-02-17T23:11:50.008Z,2.78
2023-02-17T23:14:43.917Z,1.42
2023-02-17T23:17:13.001Z,2.10
2023-02-17T23:19:45.750Z,1.60
2023-02-17T23:22:17.108Z,2.60
2023-02-17T23:24:47.435Z,1.95
2023-02-17T23:27:41.304Z,2.25
2023-02-17T23:30:16.626Z,2.15
2023-02-17T23:32:43.722Z,2.33
2023-02-17T23:35:11.907Z,2.58
2023-02-17T23:37:39.811Z,2.33
2023-02-17T23:43:00.101Z,1.98
2023-02-17T23:46:01.707Z,1.73
2023-02-17T23:48:29.741Z,1.50
2023-02-17T23:51:02.727Z,1.73
2023-02-17T23:53:30.849Z,2.60
2023-02-17T23:56:11.097Z,2.47
2023-02-17T23:58:43.749Z,2.13
